sensor_id;sensor_type;location;lat;lon;timestamp;pressure;altitude;pressure_sealevel;temperature;humidity
62103;BME280;48077;48.104;11.702;2023-11-21T00:00:15;95013.88;;;5.67;100.00
62103;BME280;48077;48.104;11.702;2023-11-21T00:02:45;95016.94;;;5.64;100.00
62103;BME280;48077;48.104;11.702;2023-11-21T00:05:14;95010.22;;;5.62;100.00
62103;BME280;48077;48.104;11.702;2023-11-21T00:07:43;95011.28;;;5.61;100.00
62103;BME280;48077;48.104;11.702;2023-11-21T00:10:11;95014.50;;;5.63;100.00
62103;BME280;48077;48.104;11.702;2023-11-21T00:12:41;95001.06;;;5.64;100.00
62103;BME280;48077;48.104;11.702;2023-11-21T00:15:10;95006.19;;;5.59;100.00
62103;BME280;48077;48.104;11.702;2023-11-21T00:17:38;95005.72;;;5.69;100.00
62103;BME280;48077;48.104;11.702;2023-11-21T00:20:08;95002.13;;;5.57;100.00
62103;BME280;48077;48.104;11.702;2023-11-21T00:22:39;94997.31;;;5.47;100.00
62103;BME280;48077;48.104;11.702;2023-11-21T00:25:08;95000.00;;;5.40;100.00
62103;BME280;48077;48.104;11.702;2023-11-21T00:27:36;94996.53;;;5.40;100.00
62103;BME280;48077;48.104;11.702;2023-11-21T00:30:05;94985.19;;;5.33;100.00
62103;BME280;48077;48.104;11.702;2023-11-21T00:32:34;94977.03;;;5.34;100.00
62103;BME280;48077;48.104;11.702;2023-11-21T00:35:04;94973.00;;;5.32;100.00
62103;BME280;48077;48.104;11.702;2023-11-21T00:37:34;94969.50;;;5.31;100.00
62103;BME280;48077;48.104;11.702;2023-11-21T00:40:02;94973.16;;;5.37;100.00
62103;BME280;48077;48.104;11.702;2023-11-21T00:42:32;94970.72;;;5.35;100.00
62103;BME280;48077;48.104;11.702;2023-11-21T00:45:01;94955.09;;;5.27;100.00
62103;BME280;48077;48.104;11.702;2023-11-21T00:47:30;94967.66;;;5.38;100.00
62103;BME280;48077;48.104;11.702;2023-11-21T00:49:57;94965.44;;;5.35;100.00
62103;BME280;48077;48.104;11.702;2023-11-21T00:52:25;94962.03;;;5.28;100.00
62103;BME280;48077;48.104;11.702;2023-11-21T00:54:54;94962.22;;;5.26;100.00
62103;BME280;48077;48.104;11.702;2023-11-21T00:57:23;94961.41;;;5.26;100.00
62103;BME280;48077;48.104;11.702;2023-11-21T00:59:50;94964.88;;;5.26;100.00
62103;BME280;48077;48.104;11.702;2023-11-21T01:07:44;94964.34;;;5.11;100.00
62103;BME280;48077;48.104;11.702;2023-11-21T01:10:12;94963.91;;;5.14;100.00
62103;BME280;48077;48.104;11.702;2023-11-21T01:12:40;94968.00;;;5.10;100.00
62103;BME280;48077;48.104;11.702;2023-11-21T01:15:08;94963.56;;;5.11;100.00
62103;BME280;48077;48.104;11.702;2023-11-21T01:17:38;94958.28;;;5.04;100.00
62103;BME280;48077;48.104;11.702;2023-11-21T01:20:08;94957.25;;;5.05;100.00
62103;BME280;48077;48.104;11.702;2023-11-21T01:22:39;94954.03;;;5.03;100.00
62103;BME280;48077;48.104;11.702;2023-11-21T01:25:09;94954.44;;;5.00;100.00
62103;BME280;48077;48.104;11.702;2023-11-21T01:27:37;94950.03;;;4.87;100.00
62103;BME280;48077;48.104;11.702;2023-11-21T01:30:06;94952.66;;;4.87;100.00
62103;BME280;48077;48.104;11.702;2023-11-21T01:32:37;94954.09;;;4.83;100.00
62103;BME280;48077;48.104;11.702;2023-11-21T01:35:06;94957.19;;;4.80;100.00
62103;BME280;48077;48.104;11.702;2023-11-21T01:37:34;94961.81;;;4.84;100.00
62103;BME280;48077;48.104;11.702;2023-11-21T01:40:01;94961.59;;;4.93;100.00
62103;BME280;48077;48.104;11.702;2023-11-21T01:42:32;94958.38;;;4.84;100.00
62103;BME280;48077;48.104;11.702;2023-11-21T01:45:01;94961.78;;;4.91;100.00
62103;BME280;48077;48.104;11.702;2023-11-21T01:47:31;94963.44;;;4.92;100.00
62103;BME280;48077;48.104;11.702;2023-11-21T01:49:59;94953.88;;;4.91;100.00
62103;BME280;48077;48.104;11.702;2023-11-21T01:52:27;94958.34;;;4.91;100.00
62103;BME280;48077;48.104;11.702;2023-11-21T01:54:56;94950.06;;;4.80;100.00
62103;BME280;48077;48.104;11.702;2023-11-21T01:57:24;94951.91;;;4.80;100.00
62103;BME280;48077;48.104;11.702;2023-11-21T01:59:54;94956.38;;;4.73;100.00
62103;BME280;48077;48.104;11.702;2023-11-21T02:02:21;94954.16;;;4.70;100.00
62103;BME280;48077;48.104;11.702;2023-11-21T02:04:49;94956.38;;;4.73;100.00
62103;BME280;48077;48.104;11.702;2023-11-21T02:07:17;94954.94;;;4.77;100.00
62103;BME280;48077;48.104;11.702;2023-11-21T02:09:46;94949.88;;;4.75;100.00
62103;BME280;48077;48.104;11.702;2023-11-21T02:12:14;94948.66;;;4.78;100.00
62103;BME280;48077;48.104;11.702;2023-11-21T02:14:42;94958.59;;;4.82;100.00
62103;BME280;48077;48.104;11.702;2023-11-21T02:17:12;94960.63;;;4.80;100.00
62103;BME280;48077;48.104;11.702;2023-11-21T02:19:41;94963.47;;;4.79;100.00
62103;BME280;48077;48.104;11.702;2023-11-21T02:22:09;94964.31;;;4.73;100.00
62103;BME280;48077;48.104;11.702;2023-11-21T02:24:41;94963.66;;;4.84;100.00
62103;BME280;48077;48.104;11.702;2023-11-21T02:27:09;94953.88;;;4.91;100.00
62103;BME280;48077;48.104;11.702;2023-11-21T02:29:36;94955.09;;;4.89;100.00
62103;BME280;48077;48.104;11.702;2023-11-21T02:32:05;94945.38;;;4.82;100.00
62103;BME280;48077;48.104;11.702;2023-11-21T02:34:32;94950.97;;;4.99;100.00
62103;BME280;48077;48.104;11.702;2023-11-21T02:37:00;94956.09;;;4.94;100.00
62103;BME280;48077;48.104;11.702;2023-11-21T02:39:28;94957.06;;;5.00;100.00
62103;BME280;48077;48.104;11.702;2023-11-21T02:41:56;94967.63;;;5.00;100.00
62103;BME280;48077;48.104;11.702;2023-11-21T02:44:24;94964.78;;;5.01;100.00
62103;BME280;48077;48.104;11.702;2023-11-21T02:46:52;94970.28;;;5.00;100.00
62103;BME280;48077;48.104;11.702;2023-11-21T02:49:20;94967.25;;;5.03;100.00
62103;BME280;48077;48.104;11.702;2023-11-21T02:51:48;94965.22;;;4.98;100.00
62103;BME280;48077;48.104;11.702;2023-11-21T02:54:15;94966.00;;;5.05;100.00
62103;BME280;48077;48.104;11.702;2023-11-21T02:56:45;94969.88;;;5.03;100.00
62103;BME280;48077;48.104;11.702;2023-11-21T02:59:13;94973.53;;;5.02;100.00
62103;BME280;48077;48.104;11.702;2023-11-21T03:01:42;94956.28;;;4.99;100.00
62103;BME280;48077;48.104;11.702;2023-11-21T03:04:09;94960.31;;;5.02;100.00
62103;BME280;48077;48.104;11.702;2023-11-21T03:06:37;94951.19;;;4.98;100.00
62103;BME280;48077;48.104;11.702;2023-11-21T03:09:05;94950.38;;;4.97;100.00
62103;BME280;48077;48.104;11.702;2023-11-21T03:11:33;94949.78;;;4.95;100.00
62103;BME280;48077;48.104;11.702;2023-11-21T03:14:00;94945.09;;;4.97;100.00
62103;BME280;48077;48.104;11.702;2023-11-21T03:16:29;94939.66;;;4.92;100.00
62103;BME280;48077;48.104;11.702;2023-11-21T03:18:57;94941.47;;;4.92;100.00
62103;BME280;48077;48.104;11.702;2023-11-21T03:21:25;94944.28;;;4.97;100.00
62103;BME280;48077;48.104;11.702;2023-11-21T03:23:53;94932.69;;;4.98;100.00
62103;BME280;48077;48.104;11.702;2023-11-21T03:26:21;94932.69;;;4.98;100.00
62103;BME280;48077;48.104;11.702;2023-11-21T03:28:48;94920.09;;;4.93;100.00
62103;BME280;48077;48.104;11.702;2023-11-21T03:31:16;94939.66;;;4.92;100.00
62103;BME280;48077;48.104;11.702;2023-11-21T03:33:46;94933.56;;;4.92;100.00
62103;BME280;48077;48.104;11.702;2023-11-21T03:36:14;94925.28;;;4.81;100.00
62103;BME280;48077;48.104;11.702;2023-11-21T03:38:42;94934.59;;;4.84;100.00
62103;BME280;48077;48.104;11.702;2023-11-21T03:41:09;94932.31;;;4.94;100.00
62103;BME280;48077;48.104;11.702;2023-11-21T03:43:37;94935.97;;;4.93;100.00
62103;BME280;48077;48.104;11.702;2023-11-21T03:46:05;94934.72;;;4.96;100.00
62103;BME280;48077;48.104;11.702;2023-11-21T03:48:33;94938.84;;;4.92;100.00
62103;BME280;48077;48.104;11.702;2023-11-21T03:51:03;94939.84;;;4.91;100.00
62103;BME280;48077;48.104;11.702;2023-11-21T03:53:31;94939.25;;;4.89;100.00
62103;BME280;48077;48.104;11.702;2023-11-21T03:56:01;94936.38;;;4.97;100.00
62103;BME280;48077;48.104;11.702;2023-11-21T03:58:29;94938.81;;;4.98;100.00
62103;BME280;48077;48.104;11.702;2023-11-21T04:00:57;94942.66;;;4.96;100.00
62103;BME280;48077;48.104;11.702;2023-11-21T04:03:24;94941.06;;;4.95;100.00
62103;BME280;48077;48.104;11.702;2023-11-21T04:05:52;94946.72;;;4.98;100.00
62103;BME280;48077;48.104;11.702;2023-11-21T04:08:21;94942.84;;;5.01;100.00
62103;BME280;48077;48.104;11.702;2023-11-21T04:10:49;94945.50;;;5.01;100.00
62103;BME280;48077;48.104;11.702;2023-11-21T04:13:16;94940.81;;;5.03;100.00
62103;BME280;48077;48.104;11.702;2023-11-21T04:15:44;94938.38;;;5.01;100.00
62103;BME280;48077;48.104;11.702;2023-11-21T04:18:11;94937.81;;;4.93;100.00
62103;BME280;48077;48.104;11.702;2023-11-21T04:20:39;94930.91;;;4.85;100.00
62103;BME280;48077;48.104;11.702;2023-11-21T04:23:07;94930.72;;;4.86;100.00
62103;BME280;48077;48.104;11.702;2023-11-21T04:25:38;94933.78;;;4.83;100.00
62103;BME280;48077;48.104;11.702;2023-11-21T04:28:05;94933.19;;;4.81;100.00
62103;BME280;48077;48.104;11.702;2023-11-21T04:30:33;94945.38;;;4.82;100.00
62103;BME280;48077;48.104;11.702;2023-11-21T04:33:01;94945.97;;;4.84;100.00
62103;BME280;48077;48.104;11.702;2023-11-21T04:35:29;94949.41;;;4.92;100.00
62103;BME280;48077;48.104;11.702;2023-11-21T04:37:56;94945.28;;;4.96;100.00
62103;BME280;48077;48.104;11.702;2023-11-21T04:40:25;94949.78;;;4.95;100.00
62103;BME280;48077;48.104;11.702;2023-11-21T04:42:55;94952.81;;;4.99;100.00
62103;BME280;48077;48.104;11.702;2023-11-21T04:45:24;94948.75;;;5.03;100.00
62103;BME280;48077;48.104;11.702;2023-11-21T04:47:51;94953.81;;;5.04;100.00
62103;BME280;48077;48.104;11.702;2023-11-21T04:50:19;94943.44;;;5.03;100.00
62103;BME280;48077;48.104;11.702;2023-11-21T04:52:47;94941.81;;;5.02;100.00
62103;BME280;48077;48.104;11.702;2023-11-21T04:55:15;94946.50;;;5.06;100.00
62103;BME280;48077;48.104;11.702;2023-11-21T04:57:43;94945.44;;;5.07;100.00
62103;BME280;48077;48.104;11.702;2023-11-21T05:00:13;94939.16;;;5.02;100.00
62103;BME280;48077;48.104;11.702;2023-11-21T05:02:42;94930.88;;;4.98;100.00
62103;BME280;48077;48.104;11.702;2023-11-21T05:05:11;94943.41;;;5.10;100.00
62103;BME280;48077;48.104;11.702;2023-11-21T05:07:40;94941.19;;;5.06;100.00
62103;BME280;48077;48.104;11.702;2023-11-21T05:10:08;94942.66;;;5.02;100.00
62103;BME280;48077;48.104;11.702;2023-11-21T05:12:39;94943.84;;;5.06;100.00
62103;BME280;48077;48.104;11.702;2023-11-21T05:15:08;94936.19;;;4.92;100.00
62103;BME280;48077;48.104;11.702;2023-11-21T05:17:38;94939.56;;;5.05;100.00
62103;BME280;48077;48.104;11.702;2023-11-21T05:20:09;94949.38;;;4.98;100.00
62103;BME280;48077;48.104;11.702;2023-11-21T05:22:37;94949.56;;;4.97;100.00
62103;BME280;48077;48.104;11.702;2023-11-21T05:25:06;94930.56;;;4.81;100.00
62103;BME280;48077;48.104;11.702;2023-11-21T05:27:35;94958.50;;;4.96;100.00
62103;BME280;48077;48.104;11.702;2023-11-21T05:30:04;94958.31;;;4.97;100.00
62103;BME280;48077;48.104;11.702;2023-11-21T05:32:33;94951.81;;;4.93;100.00
62103;BME280;48077;48.104;11.702;2023-11-21T05:35:03;94960.16;;;4.97;100.00
62103;BME280;48077;48.104;11.702;2023-11-21T05:37:35;94943.53;;;4.83;100.00
62103;BME280;48077;48.104;11.702;2023-11-21T05:40:06;94957.75;;;4.89;100.00
62103;BME280;48077;48.104;11.702;2023-11-21T05:42:34;94965.66;;;4.89;100.00
62103;BME280;48077;48.104;11.702;2023-11-21T05:45:03;94953.06;;;4.91;100.00
62103;BME280;48077;48.104;11.702;2023-11-21T05:47:37;94953.25;;;4.89;100.00
62103;BME280;48077;48.104;11.702;2023-11-21T05:50:08;94941.31;;;4.80;100.00
62103;BME280;48077;48.104;11.702;2023-11-21T05:52:38;94946.41;;;4.81;100.00
62103;BME280;48077;48.104;11.702;2023-11-21T05:55:06;94928.16;;;4.73;100.00
62103;BME280;48077;48.104;11.702;2023-11-21T05:57:34;94962.63;;;4.85;100.00
62103;BME280;48077;48.104;11.702;2023-11-21T06:00:04;94971.75;;;4.89;100.00
62103;BME280;48077;48.104;11.702;2023-11-21T06:02:38;94975.00;;;4.91;100.00
62103;BME280;48077;48.104;11.702;2023-11-21T06:05:09;94966.69;;;4.94;100.00
62103;BME280;48077;48.104;11.702;2023-11-21T06:07:38;94981.09;;;4.98;100.00
62103;BME280;48077;48.104;11.702;2023-11-21T06:10:07;94969.31;;;4.94;100.00
62103;BME280;48077;48.104;11.702;2023-11-21T06:12:38;94975.38;;;5.01;100.00
62103;BME280;48077;48.104;11.702;2023-11-21T06:15:08;94969.09;;;4.96;100.00
62103;BME280;48077;48.104;11.702;2023-11-21T06:17:36;94974.81;;;4.93;100.00
62103;BME280;48077;48.104;11.702;2023-11-21T06:20:05;94985.38;;;4.93;100.00
62103;BME280;48077;48.104;11.702;2023-11-21T06:22:38;94992.28;;;4.94;100.00
62103;BME280;48077;48.104;11.702;2023-11-21T06:25:07;94990.47;;;4.94;100.00
62103;BME280;48077;48.104;11.702;2023-11-21T06:27:38;94999.03;;;4.90;100.00
62103;BME280;48077;48.104;11.702;2023-11-21T06:30:07;94997.19;;;4.90;100.00
62103;BME280;48077;48.104;11.702;2023-11-21T06:32:36;94981.16;;;4.78;100.00
62103;BME280;48077;48.104;11.702;2023-11-21T06:35:04;95002.25;;;4.92;100.00
62103;BME280;48077;48.104;11.702;2023-11-21T06:37:32;94996.56;;;4.95;100.00
62103;BME280;48077;48.104;11.702;2023-11-21T06:40:02;95004.06;;;4.91;100.00
62103;BME280;48077;48.104;11.702;2023-11-21T06:42:31;95005.47;;;5.00;100.00
62103;BME280;48077;48.104;11.702;2023-11-21T06:44:59;95005.47;;;4.94;100.00
62103;BME280;48077;48.104;11.702;2023-11-21T06:47:30;95011.97;;;4.98;100.00
62103;BME280;48077;48.104;11.702;2023-11-21T06:49:58;95010.38;;;4.97;100.00
62103;BME280;48077;48.104;11.702;2023-11-21T06:52:26;95014.19;;;5.07;100.00
62103;BME280;48077;48.104;11.702;2023-11-21T06:54:55;95019.06;;;5.04;100.00
62103;BME280;48077;48.104;11.702;2023-11-21T06:57:23;95017.25;;;5.04;100.00
62103;BME280;48077;48.104;11.702;2023-11-21T06:59:52;95028.22;;;5.01;100.00
62103;BME280;48077;48.104;11.702;2023-11-21T07:02:20;95025.41;;;4.96;100.00
62103;BME280;48077;48.104;11.702;2023-11-21T07:04:47;95020.94;;;4.97;100.00
62103;BME280;48077;48.104;11.702;2023-11-21T07:07:15;95022.16;;;4.94;100.00
62103;BME280;48077;48.104;11.702;2023-11-21T07:09:43;95024.78;;;5.01;100.00
62103;BME280;48077;48.104;11.702;2023-11-21T07:12:11;95031.50;;;4.97;100.00
62103;BME280;48077;48.104;11.702;2023-11-21T07:14:41;95025.41;;;4.96;100.00
62103;BME280;48077;48.104;11.702;2023-11-21T07:17:11;95028.25;;;4.95;100.00
62103;BME280;48077;48.104;11.702;2023-11-21T07:19:39;95028.44;;;5.00;100.00
62103;BME280;48077;48.104;11.702;2023-11-21T07:22:08;95028.88;;;4.97;100.00
62103;BME280;48077;48.104;11.702;2023-11-21T07:24:36;95040.22;;;5.04;100.00
62103;BME280;48077;48.104;11.702;2023-11-21T07:27:04;95035.56;;;4.99;100.00
62103;BME280;48077;48.104;11.702;2023-11-21T07:29:31;95037.56;;;5.04;100.00
62103;BME280;48077;48.104;11.702;2023-11-21T07:32:01;95033.13;;;5.04;100.00
62103;BME280;48077;48.104;11.702;2023-11-21T07:34:28;95043.06;;;5.09;100.00
62103;BME280;48077;48.104;11.702;2023-11-21T07:36:56;95047.91;;;5.12;100.00
62103;BME280;48077;48.104;11.702;2023-11-21T07:39:24;95049.72;;;5.18;100.00
62103;BME280;48077;48.104;11.702;2023-11-21T07:41:51;95045.06;;;5.14;100.00
62103;BME280;48077;48.104;11.702;2023-11-21T07:44:19;95048.75;;;5.13;100.00
62103;BME280;48077;48.104;11.702;2023-11-21T07:46:48;95054.59;;;5.21;100.00
62103;BME280;48077;48.104;11.702;2023-11-21T07:49:17;95034.50;;;5.14;100.00
62103;BME280;48077;48.104;11.702;2023-11-21T07:51:47;95053.81;;;5.21;100.00
62103;BME280;48077;48.104;11.702;2023-11-21T07:54:15;95053.56;;;5.22;100.00
62103;BME280;48077;48.104;11.702;2023-11-21T07:56:43;95054.56;;;5.28;100.00
62103;BME280;48077;48.104;11.702;2023-11-21T07:59:11;95060.66;;;5.28;100.00
62103;BME280;48077;48.104;11.702;2023-11-21T08:01:40;95050.88;;;5.29;100.00
62103;BME280;48077;48.104;11.702;2023-11-21T08:04:09;95052.44;;;5.43;100.00
62103;BME280;48077;48.104;11.702;2023-11-21T08:06:39;95054.53;;;5.35;100.00
62103;BME280;48077;48.104;11.702;2023-11-21T08:09:07;95046.81;;;5.33;100.00
62103;BME280;48077;48.104;11.702;2023-11-21T08:11:35;95053.53;;;5.36;100.00
62103;BME280;48077;48.104;11.702;2023-11-21T08:14:05;95046.19;;;5.38;100.00
62103;BME280;48077;48.104;11.702;2023-11-21T08:16:33;95046.75;;;5.46;100.00
62103;BME280;48077;48.104;11.702;2023-11-21T08:19:01;95050.81;;;5.49;100.00
62103;BME280;48077;48.104;11.702;2023-11-21T08:21:29;95049.13;;;5.61;100.00
62103;BME280;48077;48.104;11.702;2023-11-21T08:23:59;95047.06;;;5.63;100.00
62103;BME280;48077;48.104;11.702;2023-11-21T08:26:26;95056.81;;;5.70;100.00
62103;BME280;48077;48.104;11.702;2023-11-21T08:28:54;95049.03;;;5.75;100.00
62103;BME280;48077;48.104;11.702;2023-11-21T08:31:24;95053.06;;;5.84;100.00
62103;BME280;48077;48.104;11.702;2023-11-21T08:33:52;95056.34;;;5.79;100.00
62103;BME280;48077;48.104;11.702;2023-11-21T08:36:21;95045.16;;;5.77;100.00
62103;BME280;48077;48.104;11.702;2023-11-21T08:38:50;95054.63;;;5.98;100.00
62103;BME280;48077;48.104;11.702;2023-11-21T08:41:20;95058.31;;;5.91;100.00
62103;BME280;48077;48.104;11.702;2023-11-21T08:43:50;95051.59;;;5.88;100.00
62103;BME280;48077;48.104;11.702;2023-11-21T08:46:18;95052.66;;;5.80;100.00
62103;BME280;48077;48.104;11.702;2023-11-21T08:48:47;95046.97;;;5.77;100.00
62103;BME280;48077;48.104;11.702;2023-11-21T08:51:15;95047.75;;;5.84;100.00
62103;BME280;48077;48.104;11.702;2023-11-21T08:53:43;95054.09;;;5.76;100.00
62103;BME280;48077;48.104;11.702;2023-11-21T08:56:12;95050.91;;;5.67;100.00
62103;BME280;48077;48.104;11.702;2023-11-21T08:58:41;95052.53;;;5.68;100.00
62103;BME280;48077;48.104;11.702;2023-11-21T09:01:09;95052.53;;;5.68;100.00
62103;BME280;48077;48.104;11.702;2023-11-21T09:03:38;95054.97;;;5.70;100.00
62103;BME280;48077;48.104;11.702;2023-11-21T09:06:07;95054.72;;;5.78;100.00
62103;BME280;48077;48.104;11.702;2023-11-21T09:08:36;95065.47;;;5.83;100.00
62103;BME280;48077;48.104;11.702;2023-11-21T09:11:04;95068.28;;;5.95;100.00
62103;BME280;48077;48.104;11.702;2023-11-21T09:13:32;95071.84;;;6.07;100.00
62103;BME280;48077;48.104;11.702;2023-11-21T09:16:02;95076.09;;;6.15;100.00
62103;BME280;48077;48.104;11.702;2023-11-21T09:18:30;95080.03;;;6.31;100.00
62103;BME280;48077;48.104;11.702;2023-11-21T09:20:58;95079.22;;;6.31;100.00
62103;BME280;48077;48.104;11.702;2023-11-21T09:23:26;95087.59;;;6.27;100.00
62103;BME280;48077;48.104;11.702;2023-11-21T09:25:53;95091.06;;;6.28;100.00
62103;BME280;48077;48.104;11.702;2023-11-21T09:28:23;95096.50;;;6.33;100.00
62103;BME280;48077;48.104;11.702;2023-11-21T09:30:51;95093.25;;;6.38;100.00
62103;BME280;48077;48.104;11.702;2023-11-21T09:33:20;95100.78;;;6.34;100.00
62103;BME280;48077;48.104;11.702;2023-11-21T09:35:48;95098.56;;;6.31;100.00
62103;BME280;48077;48.104;11.702;2023-11-21T09:38:17;95099.53;;;6.37;100.00
62103;BME280;48077;48.104;11.702;2023-11-21T09:40:46;95097.22;;;6.47;100.00
62103;BME280;48077;48.104;11.702;2023-11-21T09:43:16;95087.28;;;6.42;100.00
62103;BME280;48077;48.104;11.702;2023-11-21T09:45:46;95098.88;;;6.48;100.00
62103;BME280;48077;48.104;11.702;2023-11-21T09:48:14;95102.47;;;6.54;100.00
62103;BME280;48077;48.104;11.702;2023-11-21T09:50:47;95097.69;;;6.62;100.00
62103;BME280;48077;48.104;11.702;2023-11-21T09:53:19;95088.88;;;6.68;100.00
62103;BME280;48077;48.104;11.702;2023-11-21T09:55:50;95088.59;;;6.77;100.00
62103;BME280;48077;48.104;11.702;2023-11-21T09:58:19;95088.59;;;6.77;100.00
62103;BME280;48077;48.104;11.702;2023-11-21T10:00:49;95086.25;;;6.87;100.00
62103;BME280;48077;48.104;11.702;2023-11-21T10:03:17;95099.91;;;6.91;100.00
62103;BME280;48077;48.104;11.702;2023-11-21T10:05:48;95091.34;;;6.88;100.00
62103;BME280;48077;48.104;11.702;2023-11-21T10:08:18;95083.47;;;6.82;100.00
62103;BME280;48077;48.104;11.702;2023-11-21T10:10:49;95093.72;;;6.97;100.00
62103;BME280;48077;48.104;11.702;2023-11-21T10:13:19;95087.22;;;6.93;100.00
62103;BME280;48077;48.104;11.702;2023-11-21T10:15:49;95087.22;;;6.93;100.00
62103;BME280;48077;48.104;11.702;2023-11-21T10:18:17;95089.22;;;6.97;100.00
62103;BME280;48077;48.104;11.702;2023-11-21T10:20:47;95089.22;;;6.97;100.00
62103;BME280;48077;48.104;11.702;2023-11-21T10:23:20;95086.84;;;6.89;100.00
62103;BME280;48077;48.104;11.702;2023-11-21T10:25:49;95096.19;;;6.92;100.00
62103;BME280;48077;48.104;11.702;2023-11-21T10:28:18;95092.31;;;6.94;100.00
62103;BME280;48077;48.104;11.702;2023-11-21T10:30:47;95082.44;;;6.83;100.00
62103;BME280;48077;48.104;11.702;2023-11-21T10:33:14;95084.00;;;6.91;100.00
62103;BME280;48077;48.104;11.702;2023-11-21T10:35:44;95084.06;;;6.84;100.00
62103;BME280;48077;48.104;11.702;2023-11-21T10:38:19;95082.59;;;6.88;100.00
62103;BME280;48077;48.104;11.702;2023-11-21T10:40:49;95089.28;;;6.91;100.00
62103;BME280;48077;48.104;11.702;2023-11-21T10:43:17;95090.09;;;6.91;100.00
62103;BME280;48077;48.104;11.702;2023-11-21T10:45:45;95092.00;;;6.84;100.00
62103;BME280;48077;48.104;11.702;2023-11-21T10:48:14;95092.00;;;6.84;100.00
62103;BME280;48077;48.104;11.702;2023-11-21T10:50:43;95088.72;;;7.07;100.00
62103;BME280;48077;48.104;11.702;2023-11-21T10:53:11;95080.41;;;7.22;100.00
62103;BME280;48077;48.104;11.702;2023-11-21T10:55:41;95077.16;;;7.38;100.00
62103;BME280;48077;48.104;11.702;2023-11-21T10:58:13;95077.44;;;7.30;100.00
62103;BME280;48077;48.104;11.702;2023-11-21T11:00:41;95085.69;;;7.40;100.00
62103;BME280;48077;48.104;11.702;2023-11-21T11:03:12;95075.28;;;7.39;100.00
62103;BME280;48077;48.104;11.702;2023-11-21T11:05:43;95087.31;;;7.41;100.00
62103;BME280;48077;48.104;11.702;2023-11-21T11:08:20;95083.13;;;7.34;100.00
62103;BME280;48077;48.104;11.702;2023-11-21T11:10:55;95080.78;;;7.25;100.00
62103;BME280;48077;48.104;11.702;2023-11-21T11:13:25;95083.50;;;7.19;100.00
62103;BME280;48077;48.104;11.702;2023-11-21T11:15:58;95083.63;;;7.24;100.00
62103;BME280;48077;48.104;11.702;2023-11-21T11:18:28;95068.31;;;7.07;100.00
62103;BME280;48077;48.104;11.702;2023-11-21T11:21:01;95073.53;;;7.14;100.00
62103;BME280;48077;48.104;11.702;2023-11-21T11:23:46;95062.88;;;7.21;100.00
62103;BME280;48077;48.104;11.702;2023-11-21T11:26:32;95073.22;;;7.41;100.00
62103;BME280;48077;48.104;11.702;2023-11-21T11:29:12;95089.75;;;7.43;100.00
62103;BME280;48077;48.104;11.702;2023-11-21T11:31:51;95082.00;;;7.41;100.00
62103;BME280;48077;48.104;11.702;2023-11-21T11:34:28;95075.81;;;7.29;100.00
62103;BME280;48077;48.104;11.702;2023-11-21T11:37:00;95074.72;;;7.18;100.00
62103;BME280;48077;48.104;11.702;2023-11-21T11:39:30;95076.78;;;7.16;100.00
62103;BME280;48077;48.104;11.702;2023-11-21T11:42:02;95074.19;;;7.28;100.00
62103;BME280;48077;48.104;11.702;2023-11-21T11:44:48;95056.97;;;7.19;100.00
62103;BME280;48077;48.104;11.702;2023-11-21T11:47:21;95053.56;;;7.30;100.00
62103;BME280;48077;48.104;11.702;2023-11-21T11:49:58;95062.53;;;7.29;100.00
62103;BME280;48077;48.104;11.702;2023-11-21T11:52:34;95065.94;;;7.36;100.00
62103;BME280;48077;48.104;11.702;2023-11-21T11:55:03;95076.56;;;7.36;100.00
62103;BME280;48077;48.104;11.702;2023-11-21T11:57:34;95069.63;;;7.35;100.00
62103;BME280;48077;48.104;11.702;2023-11-21T12:00:13;95045.78;;;7.17;100.00
62103;BME280;48077;48.104;11.702;2023-11-21T12:02:45;95049.75;;;7.26;100.00
62103;BME280;48077;48.104;11.702;2023-11-21T12:05:15;95063.38;;;7.48;100.00
62103;BME280;48077;48.104;11.702;2023-11-21T12:07:46;95041.66;;;7.21;100.00
62103;BME280;48077;48.104;11.702;2023-11-21T12:10:17;95062.63;;;7.41;100.00
62103;BME280;48077;48.104;11.702;2023-11-21T12:12:47;95067.56;;;7.37;100.00
62103;BME280;48077;48.104;11.702;2023-11-21T12:15:16;95068.88;;;7.46;100.00
62103;BME280;48077;48.104;11.702;2023-11-21T12:17:44;95047.59;;;7.35;100.00
62103;BME280;48077;48.104;11.702;2023-11-21T12:20:13;95068.22;;;7.33;100.00
62103;BME280;48077;48.104;11.702;2023-11-21T12:22:45;95075.97;;;7.34;100.00
62103;BME280;48077;48.104;11.702;2023-11-21T12:25:17;95070.97;;;7.26;100.00
62103;BME280;48077;48.104;11.702;2023-11-21T12:27:48;95069.03;;;7.33;100.00
62103;BME280;48077;48.104;11.702;2023-11-21T12:30:17;95051.50;;;7.14;100.00
62103;BME280;48077;48.104;11.702;2023-11-21T12:32:48;95067.13;;;7.22;100.00
62103;BME280;48077;48.104;11.702;2023-11-21T12:35:17;95053.66;;;7.05;100.00
62103;BME280;48077;48.104;11.702;2023-11-21T12:37:46;95037.44;;;6.95;100.00
62103;BME280;48077;48.104;11.702;2023-11-21T12:40:15;95068.47;;;7.13;100.00
62103;BME280;48077;48.104;11.702;2023-11-21T12:42:46;95065.88;;;7.24;100.00
62103;BME280;48077;48.104;11.702;2023-11-21T12:45:19;95054.16;;;7.14;100.00
62103;BME280;48077;48.104;11.702;2023-11-21T12:47:48;95067.63;;;7.30;100.00
62103;BME280;48077;48.104;11.702;2023-11-21T12:50:18;95067.84;;;7.29;100.00
62103;BME280;48077;48.104;11.702;2023-11-21T12:52:51;95057.81;;;7.31;100.00
62103;BME280;48077;48.104;11.702;2023-11-21T12:55:21;95055.34;;;7.18;100.00
62103;BME280;48077;48.104;11.702;2023-11-21T12:57:51;95072.50;;;7.34;100.00
62103;BME280;48077;48.104;11.702;2023-11-21T13:00:29;95081.66;;;7.38;100.00
62103;BME280;48077;48.104;11.702;2023-11-21T13:02:58;95071.53;;;7.46;100.00
62103;BME280;48077;48.104;11.702;2023-11-21T13:05:28;95064.31;;;7.35;100.00